Time;durP1;ratioP1;P1;durP2;ratioP2;P2;SDS_P1;SDS_P2;PMS_P1;PMS_P2;Temp;Humidity;BMP_temperature;BMP_pressure;BME280_temperature;BME280_humidity;BME280_pressure;Samples;Min_cycle;Max_cycle;Signal;HPM_P1;HPM_P2
2022/06/26 00:01:23;;;;;;;4.07;3.85;;;;;;;;;;5016832;28;20064;-87
2022/06/26 00:03:50;;;;;;;3.95;3.60;;;;;;;;;;5017114;28;20041;-87
2022/06/26 00:06:17;;;;;;;3.58;3.47;;;;;;;;;;5015704;28;20465;-87
2022/06/26 00:08:47;;;;;;;4.07;3.78;;;;;;;;;;5018049;28;20042;-88
2022/06/26 00:11:15;;;;;;;4.15;3.72;;;;;;;;;;5034500;28;20138;-87
2022/06/26 00:13:42;;;;;;;3.60;3.40;;;;;;;;;;5034311;28;20549;-87
2022/06/26 00:16:09;;;;;;;4.07;3.45;;;;;;;;;;5034536;28;20076;-87
2022/06/26 00:18:36;;;;;;;4.15;3.85;;;;;;;;;;5017171;28;20057;-87
2022/06/26 00:21:05;;;;;;;3.97;3.78;;;;;;;;;;5017213;28;20124;-87
2022/06/26 00:23:32;;;;;;;3.60;3.40;;;;;;;;;;5034486;28;20097;-87
2022/06/26 00:25:59;;;;;;;3.30;3.20;;;;;;;;;;5034181;28;20053;-87
2022/06/26 00:28:27;;;;;;;4.28;3.90;;;;;;;;;;5016630;28;20051;-87
2022/06/26 00:30:54;;;;;;;4.07;3.78;;;;;;;;;;5034146;28;20586;-87
2022/06/26 00:33:21;;;;;;;4.55;3.88;;;;;;;;;;5016928;28;20378;-88
2022/06/26 00:35:48;;;;;;;4.50;4.20;;;;;;;;;;5016831;28;20087;-87
2022/06/26 00:38:17;;;;;;;4.80;4.40;;;;;;;;;;5017189;28;20049;-88
2022/06/26 00:40:44;;;;;;;7.18;4.18;;;;;;;;;;5034003;28;20099;-87
2022/06/26 00:43:11;;;;;;;3.95;3.75;;;;;;;;;;5033478;28;20128;-87
2022/06/26 00:45:38;;;;;;;7.03;4.70;;;;;;;;;;5016554;28;20059;-87
2022/06/26 00:48:05;;;;;;;4.60;4.22;;;;;;;;;;5016252;28;20140;-87
2022/06/26 00:50:33;;;;;;;3.97;3.78;;;;;;;;;;5016800;28;20048;-87
2022/06/26 00:53:00;;;;;;;4.80;4.40;;;;;;;;;;5033765;28;20057;-87
2022/06/26 00:55:27;;;;;;;4.18;3.88;;;;;;;;;;5033712;28;20097;-87
2022/06/26 00:57:55;;;;;;;4.85;4.40;;;;;;;;;;5016071;28;20053;-87
2022/06/26 01:00:22;;;;;;;4.18;3.97;;;;;;;;;;5016260;28;20225;-87
2022/06/26 01:02:49;;;;;;;4.63;4.32;;;;;;;;;;5016140;28;20083;-87
2022/06/26 01:05:16;;;;;;;5.28;4.82;;;;;;;;;;5016083;28;20128;-88
2022/06/26 01:07:44;;;;;;;4.55;4.22;;;;;;;;;;5034000;28;20072;-87
2022/06/26 01:10:11;;;;;;;5.10;4.70;;;;;;;;;;5016143;28;20096;-87
2022/06/26 01:12:39;;;;;;;5.05;4.65;;;;;;;;;;5033687;28;20049;-87
2022/06/26 01:15:10;;;;;;;5.28;4.97;;;;;;;;;;5015884;28;20049;-88
2022/06/26 01:17:39;;;;;;;5.40;5.05;;;;;;;;;;5033039;28;20476;-88
2022/06/26 01:20:07;;;;;;;5.13;4.82;;;;;;;;;;5016065;28;20053;-87
2022/06/26 01:22:34;;;;;;;5.18;4.88;;;;;;;;;;5015981;28;20049;-87
2022/06/26 01:25:01;;;;;;;5.30;4.82;;;;;;;;;;5015647;28;20088;-87
2022/06/26 01:27:29;;;;;;;6.03;5.00;;;;;;;;;;5015957;28;20473;-87
2022/06/26 01:29:56;;;;;;;5.00;4.70;;;;;;;;;;5015882;28;20057;-87
2022/06/26 01:32:24;;;;;;;5.90;5.40;;;;;;;;;;5016005;28;20057;-88
2022/06/26 01:34:52;;;;;;;5.03;4.72;;;;;;;;;;5015857;28;20045;-88
2022/06/26 01:37:19;;;;;;;5.82;5.32;;;;;;;;;;5015928;28;20144;-86
2022/06/26 01:39:47;;;;;;;5.88;5.43;;;;;;;;;;5015590;28;20085;-87
2022/06/26 01:42:14;;;;;;;5.38;5.07;;;;;;;;;;5033363;28;20551;-88
2022/06/26 01:44:41;;;;;;;6.43;5.70;;;;;;;;;;5014958;28;20049;-87
2022/06/26 01:47:08;;;;;;;6.35;5.85;;;;;;;;;;5032910;28;20049;-87
2022/06/26 01:49:35;;;;;;;6.18;5.60;;;;;;;;;;5033075;28;20136;-87
2022/06/26 01:52:03;;;;;;;5.97;5.32;;;;;;;;;;5015705;28;20053;-87
2022/06/26 01:54:30;;;;;;;6.40;5.95;;;;;;;;;;5032830;28;20526;-87
2022/06/26 01:56:58;;;;;;;6.43;5.75;;;;;;;;;;5015730;28;20045;-87
2022/06/26 01:59:25;;;;;;;6.45;6.03;;;;;;;;;;5032781;28;20104;-87
2022/06/26 02:01:52;;;;;;;9.23;5.55;;;;;;;;;;5033125;28;20393;-87
2022/06/26 02:04:20;;;;;;;6.40;6.00;;;;;;;;;;5032798;28;20053;-87
2022/06/26 02:06:47;;;;;;;6.57;5.85;;;;;;;;;;5032994;28;20072;-87
2022/06/26 02:14:46;;;;;;;6.60;5.93;;;;;;;;;;5032562;28;20057;-87
2022/06/26 02:17:13;;;;;;;8.05;7.13;;;;;;;;;;5032909;28;20049;-87
2022/06/26 02:19:40;;;;;;;9.45;6.85;;;;;;;;;;5015320;28;20112;-88
2022/06/26 02:22:07;;;;;;;7.68;6.97;;;;;;;;;;5032766;28;20117;-87
2022/06/26 02:24:36;;;;;;;7.30;6.38;;;;;;;;;;5015275;28;20461;-89
2022/06/26 02:27:03;;;;;;;7.20;6.60;;;;;;;;;;5015172;28;20470;-87
2022/06/26 02:29:30;;;;;;;8.30;6.18;;;;;;;;;;5017825;28;20045;-87
2022/06/26 02:31:58;;;;;;;8.75;6.72;;;;;;;;;;5018899;28;20091;-87
2022/06/26 02:34:25;;;;;;;7.22;6.57;;;;;;;;;;5036427;28;20045;-87
2022/06/26 02:36:52;;;;;;;7.75;6.70;;;;;;;;;;5036371;28;20050;-88
2022/06/26 02:39:19;;;;;;;7.30;6.70;;;;;;;;;;5036457;28;20526;-87
2022/06/26 02:41:46;;;;;;;6.85;6.25;;;;;;;;;;5036333;28;20120;-87
2022/06/26 02:44:15;;;;;;;6.63;6.13;;;;;;;;;;5035698;28;20049;-87
2022/06/26 02:46:42;;;;;;;7.97;6.93;;;;;;;;;;5018829;28;20417;-86
2022/06/26 02:49:10;;;;;;;7.78;7.18;;;;;;;;;;5018876;28;20061;-88
2022/06/26 02:51:37;;;;;;;7.68;6.80;;;;;;;;;;5018772;28;20084;-88
2022/06/26 02:54:05;;;;;;;9.75;7.50;;;;;;;;;;5035944;28;20124;-88
2022/06/26 02:56:32;;;;;;;8.52;7.82;;;;;;;;;;5019636;28;20129;-88
2022/06/26 02:58:59;;;;;;;12.43;6.75;;;;;;;;;;5018959;28;20093;-87
2022/06/26 03:01:27;;;;;;;7.15;6.65;;;;;;;;;;5018529;28;20117;-87
2022/06/26 03:03:54;;;;;;;8.88;7.90;;;;;;;;;;5018363;28;20144;-89
2022/06/26 03:06:21;;;;;;;7.10;6.60;;;;;;;;;;5018214;28;20050;-88
2022/06/26 03:08:49;;;;;;;9.07;8.00;;;;;;;;;;5018568;28;20053;-87
2022/06/26 03:11:16;;;;;;;8.68;7.93;;;;;;;;;;5018509;28;20140;-88
2022/06/26 03:13:43;;;;;;;8.63;7.57;;;;;;;;;;5035871;28;20045;-88
2022/06/26 03:16:11;;;;;;;8.20;7.60;;;;;;;;;;5017993;28;20050;-88
2022/06/26 03:18:38;;;;;;;7.57;6.97;;;;;;;;;;5018376;28;20153;-87
2022/06/26 03:21:05;;;;;;;8.00;7.45;;;;;;;;;;5018423;28;20453;-87
2022/06/26 03:26:18;;;;;;;8.52;7.65;;;;;;;;;;5035596;28;20088;-88
2022/06/26 03:28:45;;;;;;;8.65;7.78;;;;;;;;;;5018018;28;20196;-87
2022/06/26 03:31:12;;;;;;;8.63;7.93;;;;;;;;;;5017722;28;20076;-87
2022/06/26 03:33:40;;;;;;;7.50;6.90;;;;;;;;;;5018117;28;20052;-87
2022/06/26 03:36:10;;;;;;;7.53;6.82;;;;;;;;;;5034940;28;20494;-87
2022/06/26 03:38:40;;;;;;;9.07;8.20;;;;;;;;;;5035213;28;20137;-87
2022/06/26 03:41:07;;;;;;;8.80;7.90;;;;;;;;;;5017557;28;20099;-87
2022/06/26 03:43:34;;;;;;;9.25;8.45;;;;;;;;;;5017574;28;20046;-87
2022/06/26 03:46:01;;;;;;;9.23;8.52;;;;;;;;;;5017667;28;20409;-87
2022/06/26 03:48:29;;;;;;;8.43;7.72;;;;;;;;;;5035383;28;20051;-88
2022/06/26 03:50:56;;;;;;;8.43;7.10;;;;;;;;;;5035224;28;20055;-88
2022/06/26 03:53:24;;;;;;;8.75;8.15;;;;;;;;;;5035186;28;20086;-88
2022/06/26 03:55:51;;;;;;;8.40;7.75;;;;;;;;;;5017814;28;20136;-87
2022/06/26 03:58:19;;;;;;;8.27;7.47;;;;;;;;;;5034997;28;20057;-88
2022/06/26 04:00:46;;;;;;;8.70;7.90;;;;;;;;;;5017541;28;20477;-88
2022/06/26 04:03:13;;;;;;;8.43;7.55;;;;;;;;;;5017545;28;20140;-87
2022/06/26 04:05:40;;;;;;;7.68;7.07;;;;;;;;;;5017513;28;20053;-87
2022/06/26 04:08:07;;;;;;;8.43;7.72;;;;;;;;;;5034740;28;20042;-87
2022/06/26 04:10:41;;;;;;;;;;;;;;;;;;5035107;28;20049;-87
2022/06/26 04:13:09;;;;;;;8.20;7.50;;;;;;;;;;5034765;28;20011;-88
2022/06/26 04:15:37;;;;;;;9.63;7.88;;;;;;;;;;5017096;28;20084;-87
2022/06/26 04:18:04;;;;;;;9.73;7.70;;;;;;;;;;5034579;28;20144;-87
2022/06/26 04:20:32;;;;;;;8.40;7.65;;;;;;;;;;5016740;28;20569;-88
2022/06/26 04:23:02;;;;;;;7.90;7.22;;;;;;;;;;5016906;28;20077;-87
2022/06/26 04:25:30;;;;;;;8.27;7.57;;;;;;;;;;5016809;28;20405;-88
2022/06/26 04:27:57;;;;;;;7.97;7.38;;;;;;;;;;5034217;28;20463;-88
2022/06/26 04:30:25;;;;;;;9.82;8.48;;;;;;;;;;5016557;28;20049;-87
2022/06/26 04:32:52;;;;;;;7.78;7.10;;;;;;;;;;5016862;28;20132;-87
2022/06/26 04:35:19;;;;;;;7.78;7.18;;;;;;;;;;5016699;28;20132;-88
2022/06/26 04:37:47;;;;;;;7.72;7.00;;;;;;;;;;5016664;28;20565;-87
2022/06/26 04:40:14;;;;;;;7.68;7.18;;;;;;;;;;5033468;28;20488;-87
2022/06/26 04:42:42;;;;;;;8.23;6.88;;;;;;;;;;5016538;28;20084;-88
2022/06/26 04:45:10;;;;;;;6.97;6.53;;;;;;;;;;5015954;28;20057;-87
2022/06/26 04:47:38;;;;;;;6.63;6.13;;;;;;;;;;5034140;28;20136;-88
2022/06/26 04:50:06;;;;;;;6.30;5.80;;;;;;;;;;5033753;28;20486;-87
2022/06/26 04:52:33;;;;;;;6.80;6.20;;;;;;;;;;5015431;28;20144;-88
2022/06/26 04:55:00;;;;;;;5.97;5.47;;;;;;;;;;5033727;28;20041;-88
2022/06/26 04:57:27;;;;;;;5.88;5.32;;;;;;;;;;5016239;28;20288;-89
2022/06/26 04:59:55;;;;;;;5.32;4.68;;;;;;;;;;5016323;28;20056;-87
2022/06/26 05:02:22;;;;;;;4.75;4.45;;;;;;;;;;5016300;28;20136;-88
2022/06/26 05:04:49;;;;;;;4.88;4.47;;;;;;;;;;5016028;28;20087;-87
2022/06/26 05:07:16;;;;;;;4.50;4.20;;;;;;;;;;5016301;28;20080;-87
2022/06/26 05:09:44;;;;;;;4.65;4.13;;;;;;;;;;5016244;28;20085;-88
2022/06/26 05:12:11;;;;;;;6.60;3.40;;;;;;;;;;5033554;28;20251;-88
2022/06/26 05:14:38;;;;;;;6.20;3.50;;;;;;;;;;5017019;28;20144;-89
2022/06/26 05:17:05;;;;;;;3.22;2.95;;;;;;;;;;5017808;28;20454;-89
2022/06/26 05:19:32;;;;;;;8.30;3.78;;;;;;;;;;5015930;28;20087;-87
2022/06/26 05:22:02;;;;;;;9.00;3.10;;;;;;;;;;5033190;28;20055;-89
2022/06/26 05:24:29;;;;;;;6.53;2.70;;;;;;;;;;5015974;28;20283;-89
2022/06/26 05:26:58;;;;;;;5.72;2.80;;;;;;;;;;5016174;28;20132;-88
2022/06/26 05:29:25;;;;;;;7.10;2.25;;;;;;;;;;5016119;28;20045;-88
2022/06/26 05:31:53;;;;;;;8.00;2.53;;;;;;;;;;5015754;28;20042;-88
2022/06/26 05:34:20;;;;;;;7.88;2.67;;;;;;;;;;5015674;28;20096;-87
2022/06/26 05:36:47;;;;;;;6.20;2.38;;;;;;;;;;5015512;28;20361;-87
2022/06/26 05:39:15;;;;;;;4.35;2.00;;;;;;;;;;5032755;28;20482;-87
2022/06/26 05:41:42;;;;;;;6.60;2.50;;;;;;;;;;5015578;28;20490;-88
2022/06/26 05:44:09;;;;;;;1.90;1.80;;;;;;;;;;5015163;28;20053;-87
2022/06/26 05:46:37;;;;;;;2.15;1.70;;;;;;;;;;5015630;28;20509;-89
2022/06/26 05:49:05;;;;;;;3.05;2.05;;;;;;;;;;5015470;28;20054;-88
2022/06/26 05:51:32;;;;;;;5.15;1.85;;;;;;;;;;5015848;28;20088;-87
2022/06/26 05:53:59;;;;;;;2.13;1.90;;;;;;;;;;5032992;28;20052;-88
2022/06/26 05:56:26;;;;;;;1.80;1.70;;;;;;;;;;5033050;28;20081;-87
2022/06/26 05:58:53;;;;;;;1.70;1.70;;;;;;;;;;5015619;28;20072;-87
2022/06/26 06:01:20;;;;;;;2.45;1.70;;;;;;;;;;5015574;28;20045;-87
2022/06/26 06:03:47;;;;;;;2.05;1.73;;;;;;;;;;5035954;28;20045;-88
2022/06/26 06:06:15;;;;;;;1.90;1.80;;;;;;;;;;5019444;28;20477;-88
2022/06/26 06:08:42;;;;;;;2.70;1.98;;;;;;;;;;5036936;28;20140;-87
2022/06/26 06:11:09;;;;;;;3.75;1.70;;;;;;;;;;5018165;28;20153;-88
2022/06/26 06:13:36;;;;;;;1.98;1.88;;;;;;;;;;5037171;28;20140;-88
2022/06/26 06:16:04;;;;;;;1.83;1.73;;;;;;;;;;5019529;28;20073;-88
2022/06/26 06:18:33;;;;;;;2.00;1.75;;;;;;;;;;5019249;28;20045;-87
2022/06/26 06:21:00;;;;;;;6.82;3.60;;;;;;;;;;5018901;28;20528;-88
2022/06/26 06:23:43;;;;;;;13.90;11.20;;;;;;;;;;5036802;28;20072;-87
2022/06/26 06:26:10;;;;;;;9.43;5.68;;;;;;;;;;5018905;28;20059;-89
2022/06/26 06:28:38;;;;;;;4.43;3.60;;;;;;;;;;5019145;28;20410;-88
2022/06/26 06:31:05;;;;;;;10.45;4.00;;;;;;;;;;5018870;28;20045;-88
2022/06/26 06:33:32;;;;;;;9.63;3.58;;;;;;;;;;5036123;28;20053;-87
2022/06/26 06:36:00;;;;;;;9.27;3.00;;;;;;;;;;5018597;28;20133;-87
2022/06/26 06:38:27;;;;;;;7.78;2.58;;;;;;;;;;5018843;28;20557;-89
2022/06/26 06:40:54;;;;;;;4.72;2.10;;;;;;;;;;5019136;28;20049;-89
2022/06/26 06:43:21;;;;;;;10.43;2.35;;;;;;;;;;5018349;28;20600;-87
2022/06/26 06:45:48;;;;;;;7.07;2.20;;;;;;;;;;5018396;28;20132;-87
2022/06/26 06:48:15;;;;;;;5.55;2.08;;;;;;;;;;5018464;28;20050;-87
2022/06/26 06:50:43;;;;;;;7.00;2.50;;;;;;;;;;5018717;28;20105;-89
2022/06/26 06:53:10;;;;;;;8.38;2.10;;;;;;;;;;5018672;28;20056;-87
2022/06/26 06:55:37;;;;;;;7.05;2.13;;;;;;;;;;5018525;28;20459;-89
2022/06/26 06:58:05;;;;;;;4.22;1.98;;;;;;;;;;5036129;28;20050;-87
2022/06/26 07:00:32;;;;;;;6.60;2.38;;;;;;;;;;5018519;28;20053;-89
2022/06/26 07:03:03;;;;;;;8.55;2.30;;;;;;;;;;5018516;28;20081;-87
2022/06/26 07:05:31;;;;;;;4.15;1.90;;;;;;;;;;5018514;28;20096;-89
2022/06/26 07:07:58;;;;;;;4.43;1.70;;;;;;;;;;5018329;28;20132;-89
2022/06/26 07:10:26;;;;;;;7.60;1.80;;;;;;;;;;5035983;28;20053;-89
2022/06/26 07:12:54;;;;;;;3.47;2.30;;;;;;;;;;5018079;28;20145;-90
2022/06/26 07:15:21;;;;;;;1.35;0.90;;;;;;;;;;5035235;28;20054;-90
2022/06/26 07:17:48;;;;;;;1.73;0.40;;;;;;;;;;5035963;28;20120;-90
2022/06/26 07:20:16;;;;;;;1.80;0.80;;;;;;;;;;5018282;28;20405;-89
2022/06/26 07:22:43;;;;;;;0.73;0.30;;;;;;;;;;5018252;28;20528;-90
2022/06/26 07:25:10;;;;;;;0.70;0.45;;;;;;;;;;5017869;28;20045;-88
2022/06/26 07:27:37;;;;;;;0.47;0.47;;;;;;;;;;5017994;28;20050;-88
2022/06/26 07:30:06;;;;;;;2.35;0.77;;;;;;;;;;5018263;28;20088;-89
2022/06/26 07:32:33;;;;;;;0.73;0.73;;;;;;;;;;5036279;28;20096;-90
2022/06/26 07:35:00;;;;;;;0.40;0.30;;;;;;;;;;5026200;28;20045;-90
2022/06/26 07:37:27;;;;;;;1.15;0.57;;;;;;;;;;5019125;28;20052;-90
2022/06/26 07:39:55;;;;;;;0.88;0.30;;;;;;;;;;5034750;28;20064;-90
2022/06/26 07:42:22;;;;;;;0.50;0.50;;;;;;;;;;5017933;28;20081;-91
2022/06/26 07:44:49;;;;;;;0.57;0.40;;;;;;;;;;5035108;28;20059;-90
2022/06/26 07:47:17;;;;;;;1.48;0.40;;;;;;;;;;5018390;28;20072;-90
2022/06/26 07:49:44;;;;;;;0.65;0.40;;;;;;;;;;5019449;28;20137;-91
2022/06/26 07:52:14;;;;;;;1.05;0.30;;;;;;;;;;5018727;28;20049;-88
2022/06/26 07:54:41;;;;;;;0.35;0.35;;;;;;;;;;5018791;28;20101;-92
2022/06/26 07:57:10;;;;;;;2.25;0.30;;;;;;;;;;5019069;28;20049;-92
2022/06/26 07:59:37;;;;;;;0.50;0.30;;;;;;;;;;5019335;28;20076;-91
2022/06/26 08:02:05;;;;;;;1.52;0.40;;;;;;;;;;5019664;28;20046;-91
2022/06/26 08:04:32;;;;;;;0.30;0.30;;;;;;;;;;5019393;28;20045;-91
2022/06/26 08:07:00;;;;;;;0.28;0.28;;;;;;;;;;5019291;28;20053;-93
2022/06/26 08:09:28;;;;;;;2.00;0.40;;;;;;;;;;5019638;28;20487;-90
2022/06/26 08:11:57;;;;;;;0.20;0.20;;;;;;;;;;5036465;28;20111;-92
2022/06/26 08:14:24;;;;;;;0.40;0.32;;;;;;;;;;5017788;28;20081;-90
2022/06/26 08:16:51;;;;;;;1.45;0.30;;;;;;;;;;5036234;28;20049;-88
2022/06/26 08:19:18;;;;;;;0.25;0.25;;;;;;;;;;5018263;28;20049;-90
2022/06/26 08:22:01;;;;;;;1.08;0.45;;;;;;;;;;5018573;28;20053;-87
2022/06/26 08:24:28;;;;;;;0.30;0.30;;;;;;;;;;5035918;28;20124;-89
2022/06/26 08:26:56;;;;;;;0.30;0.30;;;;;;;;;;5017120;28;20140;-90
2022/06/26 08:29:23;;;;;;;0.82;0.30;;;;;;;;;;5017873;28;20113;-88
2022/06/26 08:31:50;;;;;;;0.95;0.25;;;;;;;;;;5017901;28;20096;-90
2022/06/26 08:34:18;;;;;;;1.10;0.30;;;;;;;;;;5017572;28;20111;-87
2022/06/26 08:36:46;;;;;;;1.25;0.30;;;;;;;;;;5016899;28;20137;-90
2022/06/26 08:39:14;;;;;;;2.08;0.30;;;;;;;;;;5014057;28;20141;-91
2022/06/26 08:41:48;;;;;;;1.38;0.30;;;;;;;;;;5014187;28;20054;-91
2022/06/26 08:44:15;;;;;;;1.48;0.30;;;;;;;;;;5014437;28;20581;-86
2022/06/26 08:46:53;;;;;;;6.78;0.50;;;;;;;;;;5076281;28;20526;-84
2022/06/26 08:49:23;;;;;;;0.50;0.25;;;;;;;;;;5077446;28;20509;-84
2022/06/26 08:51:57;;;;;;;0.68;0.30;;;;;;;;;;5077221;28;20053;-84
2022/06/26 08:54:27;;;;;;;0.70;0.20;;;;;;;;;;5078450;28;20056;-84
2022/06/26 08:56:54;;;;;;;0.57;0.50;;;;;;;;;;5078660;28;20056;-85
2022/06/26 08:59:21;;;;;;;0.28;0.25;;;;;;;;;;5100978;22;20166;-84
2022/06/26 09:01:48;;;;;;;2.42;0.80;;;;;;;;;;5056518;28;20049;-85
2022/06/26 09:04:16;;;;;;;0.43;0.22;;;;;;;;;;5056524;28;20079;-85
2022/06/26 09:06:44;;;;;;;1.95;0.28;;;;;;;;;;5055345;28;20129;-85
2022/06/26 09:09:22;;;;;;;3.25;0.45;;;;;;;;;;5055630;28;20103;-84
2022/06/26 09:11:50;;;;;;;0.20;0.20;;;;;;;;;;5056345;28;20081;-86
2022/06/26 09:14:17;;;;;;;1.65;0.30;;;;;;;;;;5054889;28;20139;-82
2022/06/26 09:16:46;;;;;;;1.27;0.40;;;;;;;;;;5053927;28;20102;-84
2022/06/26 09:19:16;;;;;;;1.25;0.38;;;;;;;;;;5053234;28;20098;-83
2022/06/26 09:21:45;;;;;;;1.35;0.30;;;;;;;;;;5053099;28;20091;-85
2022/06/26 09:24:13;;;;;;;0.95;0.30;;;;;;;;;;5070941;28;20512;-85
2022/06/26 09:27:01;;;;;;;1.10;0.50;;;;;;;;;;5070915;28;20072;-84
2022/06/26 09:29:28;;;;;;;4.05;0.70;;;;;;;;;;5052777;28;20064;-86
2022/06/26 09:31:55;;;;;;;5.13;0.77;;;;;;;;;;5052444;28;20098;-86
2022/06/26 09:34:25;;;;;;;2.88;1.15;;;;;;;;;;5052349;28;20086;-82
2022/06/26 09:36:59;;;;;;;0.60;0.40;;;;;;;;;;5070179;28;20048;-82
2022/06/26 09:39:29;;;;;;;0.93;0.40;;;;;;;;;;5052847;28;20057;-84
2022/06/26 09:41:56;;;;;;;0.30;0.30;;;;;;;;;;5052635;28;20044;-83
2022/06/26 09:44:24;;;;;;;0.38;0.30;;;;;;;;;;5052384;28;20566;-83
2022/06/26 09:46:55;;;;;;;0.20;0.20;;;;;;;;;;5052617;28;20048;-84
2022/06/26 09:49:22;;;;;;;0.55;0.43;;;;;;;;;;5052860;28;20099;-86
2022/06/26 09:51:49;;;;;;;1.60;0.60;;;;;;;;;;5052435;28;20048;-84
2022/06/26 09:54:17;;;;;;;1.17;0.30;;;;;;;;;;5052324;28;20151;-83
2022/06/26 09:56:44;;;;;;;0.20;0.20;;;;;;;;;;5047371;28;20068;-84
2022/06/26 09:59:12;;;;;;;1.13;0.30;;;;;;;;;;5056265;28;20060;-85
2022/06/26 10:07:30;;;;;;;;;;;;;;;;;;5026424;28;20049;-85
2022/06/26 10:09:58;;;;;;;2.03;0.52;;;;;;;;;;5039694;28;19920;-84
2022/06/26 10:12:25;;;;;;;0.35;0.30;;;;;;;;;;5038746;28;20071;-83
2022/06/26 10:14:55;;;;;;;1.00;0.30;;;;;;;;;;5039078;28;20084;-86
2022/06/26 10:17:29;;;;;;;1.73;0.30;;;;;;;;;;5039250;28;20452;-85
2022/06/26 10:19:59;;;;;;;0.65;0.30;;;;;;;;;;5038808;28;20520;-83
2022/06/26 10:22:26;;;;;;;0.20;0.20;;;;;;;;;;5039034;28;20077;-85
2022/06/26 10:24:55;;;;;;;0.45;0.40;;;;;;;;;;5056679;28;20494;-83
2022/06/26 10:27:29;;;;;;;1.55;0.30;;;;;;;;;;5038825;28;20049;-86
2022/06/26 10:30:09;;;;;;;0.22;0.22;;;;;;;;;;5057015;28;20041;-86
2022/06/26 10:32:37;;;;;;;0.30;0.30;;;;;;;;;;5039210;28;20127;-84
2022/06/26 10:35:04;;;;;;;0.15;0.15;;;;;;;;;;5038993;28;20132;-85
2022/06/26 10:37:50;;;;;;;0.70;0.20;;;;;;;;;;5039168;28;20045;-85
2022/06/26 10:43:07;;;;;;;0.30;0.20;;;;;;;;;;5057767;28;20136;-85
2022/06/26 10:45:37;;;;;;;0.20;0.20;;;;;;;;;;5043374;28;20076;-84
2022/06/26 10:48:07;;;;;;;2.30;0.68;;;;;;;;;;5041868;28;20568;-85
2022/06/26 10:50:35;;;;;;;0.20;0.20;;;;;;;;;;5042547;28;20060;-85
2022/06/26 10:53:16;;;;;;;1.48;0.30;;;;;;;;;;5042214;28;20052;-86
2022/06/26 10:56:04;;;;;;;0.38;0.38;;;;;;;;;;5064587;28;20052;-86
2022/06/26 10:58:35;;;;;;;0.35;0.20;;;;;;;;;;5037810;28;20064;-86
2022/06/26 11:01:03;;;;;;;0.50;0.20;;;;;;;;;;5036298;28;20053;-87
2022/06/26 11:03:31;;;;;;;3.60;0.95;;;;;;;;;;5038518;28;20053;-87
2022/06/26 11:06:00;;;;;;;3.22;0.80;;;;;;;;;;5035534;28;20045;-85
2022/06/26 11:08:32;;;;;;;3.90;0.55;;;;;;;;;;5035403;28;20073;-84
2022/06/26 11:11:03;;;;;;;4.88;0.50;;;;;;;;;;5036643;28;20047;-86
2022/06/26 11:13:31;;;;;;;0.20;0.20;;;;;;;;;;5037866;28;20487;-88
2022/06/26 11:15:59;;;;;;;1.25;0.20;;;;;;;;;;5036915;28;20064;-86
2022/06/26 11:18:26;;;;;;;1.10;0.20;;;;;;;;;;5035836;28;20049;-87
2022/06/26 11:20:54;;;;;;;11.73;1.88;;;;;;;;;;5035373;28;20084;-86
2022/06/26 11:23:31;;;;;;;4.47;1.15;;;;;;;;;;5036354;28;20077;-86
2022/06/26 11:26:00;;;;;;;2.35;0.90;;;;;;;;;;5036426;28;20132;-86
2022/06/26 11:28:35;;;;;;;6.03;1.35;;;;;;;;;;5041364;28;20060;-87
2022/06/26 11:31:04;;;;;;;7.85;1.85;;;;;;;;;;5040128;28;20048;-85
2022/06/26 11:33:33;;;;;;;0.63;0.57;;;;;;;;;;5049105;28;20046;-84
2022/06/26 11:36:04;;;;;;;0.35;0.30;;;;;;;;;;5038278;28;20041;-85
2022/06/26 11:38:31;;;;;;;0.20;0.20;;;;;;;;;;5036293;28;20077;-85
2022/06/26 11:40:59;;;;;;;0.30;0.30;;;;;;;;;;5035560;28;20069;-86
2022/06/26 11:43:27;;;;;;;0.30;0.20;;;;;;;;;;5034954;28;20560;-86
2022/06/26 11:45:55;;;;;;;32.55;5.47;;;;;;;;;;5033782;28;20068;-85
2022/06/26 11:48:22;;;;;;;0.30;0.30;;;;;;;;;;5034886;28;20046;-86
2022/06/26 11:50:51;;;;;;;0.40;0.40;;;;;;;;;;5034727;28;20053;-85
2022/06/26 11:53:19;;;;;;;0.55;0.30;;;;;;;;;;5035495;28;20450;-85
2022/06/26 11:55:47;;;;;;;0.40;0.35;;;;;;;;;;5038056;28;20053;-84
2022/06/26 11:58:16;;;;;;;0.20;0.20;;;;;;;;;;5022155;28;20056;-85
2022/06/26 12:00:46;;;;;;;0.68;0.20;;;;;;;;;;5033815;28;20052;-86
2022/06/26 12:03:21;;;;;;;0.38;0.30;;;;;;;;;;5037170;28;20052;-86
2022/06/26 12:05:48;;;;;;;0.75;0.25;;;;;;;;;;5054352;28;20045;-85
2022/06/26 12:08:19;;;;;;;1.55;0.40;;;;;;;;;;5036572;28;20071;-85
2022/06/26 12:10:50;;;;;;;0.32;0.22;;;;;;;;;;5036888;28;20132;-84
2022/06/26 12:13:31;;;;;;;1.85;0.50;;;;;;;;;;5037206;28;20044;-84
2022/06/26 12:16:18;;;;;;;0.30;0.30;;;;;;;;;;5036550;28;20106;-87
2022/06/26 12:18:45;;;;;;;0.10;0.10;;;;;;;;;;5036072;28;20048;-86
2022/06/26 12:21:15;;;;;;;0.95;0.50;;;;;;;;;;5035489;28;20049;-85
2022/06/26 12:23:46;;;;;;;2.08;0.35;;;;;;;;;;5036161;28;20060;-86
2022/06/26 12:26:16;;;;;;;0.30;0.30;;;;;;;;;;5035713;28;20136;-83
2022/06/26 12:28:44;;;;;;;0.20;0.20;;;;;;;;;;5036127;28;20118;-83
2022/06/26 12:31:11;;;;;;;0.30;0.30;;;;;;;;;;5035924;28;20525;-82
2022/06/26 12:33:44;;;;;;;0.30;0.30;;;;;;;;;;5036903;28;20526;-82
2022/06/26 12:36:11;;;;;;;1.13;0.40;;;;;;;;;;5035393;28;20486;-82
2022/06/26 12:38:39;;;;;;;0.73;0.30;;;;;;;;;;5036300;28;20092;-81
2022/06/26 12:41:16;;;;;;;0.60;0.20;;;;;;;;;;5036208;28;20118;-83
2022/06/26 12:43:47;;;;;;;0.55;0.28;;;;;;;;;;5036026;28;20053;-81
2022/06/26 12:46:23;;;;;;;3.00;0.73;;;;;;;;;;5054640;28;20049;-84
2022/06/26 12:48:50;;;;;;;3.00;0.70;;;;;;;;;;5038623;28;20048;-83
2022/06/26 12:51:18;;;;;;;0.20;0.20;;;;;;;;;;5038463;28;20045;-82
2022/06/26 12:53:45;;;;;;;0.65;0.40;;;;;;;;;;5037735;28;20041;-84
2022/06/26 12:56:13;;;;;;;0.50;0.30;;;;;;;;;;5037302;28;20053;-83
2022/06/26 12:58:41;;;;;;;1.73;0.25;;;;;;;;;;5034350;28;20454;-82
2022/06/26 13:01:09;;;;;;;0.50;0.50;;;;;;;;;;5034445;28;20080;-83
2022/06/26 13:03:36;;;;;;;1.48;0.30;;;;;;;;;;5034770;28;20490;-82
2022/06/26 13:06:03;;;;;;;0.30;0.30;;;;;;;;;;5034080;28;20525;-84
2022/06/26 13:08:31;;;;;;;4.88;0.65;;;;;;;;;;5034762;28;20085;-83
2022/06/26 13:11:23;;;;;;;1.95;0.73;;;;;;;;;;5032896;28;20133;-82
2022/06/26 13:13:46;;;;;;;1.40;0.35;;;;;;;;;;5034887;28;20080;-83
2022/06/26 13:16:33;;;;;;;0.65;0.65;;;;;;;;;;5032838;28;20055;-83
2022/06/26 13:19:00;;;;;;;1.20;0.30;;;;;;;;;;5032958;28;20419;-83
2022/06/26 13:21:27;;;;;;;0.30;0.30;;;;;;;;;;5033530;28;20053;-83
2022/06/26 13:23:54;;;;;;;0.32;0.32;;;;;;;;;;5035964;28;20107;-84
2022/06/26 13:26:21;;;;;;;1.73;0.60;;;;;;;;;;5035340;28;20128;-83
2022/06/26 13:28:49;;;;;;;18.10;3.50;;;;;;;;;;5034154;28;20046;-84
2022/06/26 13:31:16;;;;;;;5.47;1.00;;;;;;;;;;5035378;28;20127;-84
2022/06/26 13:33:43;;;;;;;17.17;2.83;;;;;;;;;;5037230;28;20080;-84
2022/06/26 13:36:10;;;;;;;5.05;0.88;;;;;;;;;;5036952;28;20081;-82
2022/06/26 13:38:38;;;;;;;0.20;0.20;;;;;;;;;;5037023;28;20108;-82
2022/06/26 13:41:05;;;;;;;1.17;0.38;;;;;;;;;;5037847;28;20058;-81
2022/06/26 13:43:36;;;;;;;0.22;0.20;;;;;;;;;;5039159;28;20045;-82
2022/06/26 13:46:03;;;;;;;0.95;0.30;;;;;;;;;;5040985;28;20504;-84
2022/06/26 13:48:32;;;;;;;0.40;0.40;;;;;;;;;;5043019;28;20184;-82
2022/06/26 13:50:59;;;;;;;0.30;0.20;;;;;;;;;;5043540;28;20105;-80
2022/06/26 13:53:26;;;;;;;0.70;0.30;;;;;;;;;;5039021;28;20048;-82
2022/06/26 13:55:53;;;;;;;0.40;0.40;;;;;;;;;;5037553;28;20079;-82
2022/06/26 13:58:21;;;;;;;0.70;0.40;;;;;;;;;;5040174;28;20045;-82
2022/06/26 14:00:48;;;;;;;0.57;0.30;;;;;;;;;;5040202;28;20041;-83
2022/06/26 14:03:15;;;;;;;0.30;0.30;;;;;;;;;;5056966;28;20068;-82
2022/06/26 14:05:42;;;;;;;1.65;0.30;;;;;;;;;;5039425;28;20045;-83
2022/06/26 14:08:09;;;;;;;0.20;0.20;;;;;;;;;;5039158;28;20518;-83
2022/06/26 14:10:37;;;;;;;0.38;0.38;;;;;;;;;;5039185;28;20069;-83
2022/06/26 14:13:05;;;;;;;0.20;0.20;;;;;;;;;;5038506;28;20057;-84
2022/06/26 14:15:35;;;;;;;0.60;0.45;;;;;;;;;;5039869;28;20049;-83
2022/06/26 14:18:06;;;;;;;0.20;0.20;;;;;;;;;;5039689;28;20489;-83
2022/06/26 14:20:33;;;;;;;0.98;0.20;;;;;;;;;;5040344;28;20152;-83
2022/06/26 14:25:58;;;;;;;13.25;2.08;;;;;;;;;;5058144;28;20045;-84
2022/06/26 14:28:26;;;;;;;1.75;0.38;;;;;;;;;;5041846;28;20110;-84
2022/06/26 14:30:54;;;;;;;9.70;1.40;;;;;;;;;;5039974;28;20064;-83
2022/06/26 14:33:22;;;;;;;0.45;0.32;;;;;;;;;;5040582;28;20415;-82
2022/06/26 14:35:56;;;;;;;0.65;0.30;;;;;;;;;;5041082;28;20089;-82
2022/06/26 14:38:23;;;;;;;0.43;0.30;;;;;;;;;;5040910;28;20041;-82
2022/06/26 14:40:50;;;;;;;0.45;0.40;;;;;;;;;;5041348;28;20044;-83
2022/06/26 14:43:18;;;;;;;1.63;0.20;;;;;;;;;;5040198;28;20041;-81
2022/06/26 14:45:45;;;;;;;0.85;0.30;;;;;;;;;;5058246;28;20080;-82
2022/06/26 14:48:12;;;;;;;2.78;1.13;;;;;;;;;;5039470;28;20045;-83
2022/06/26 14:50:40;;;;;;;0.85;0.35;;;;;;;;;;5040904;28;20048;-82
2022/06/26 14:53:08;;;;;;;0.68;0.32;;;;;;;;;;5058862;28;20058;-83
2022/06/26 14:55:36;;;;;;;0.28;0.28;;;;;;;;;;5058140;28;20045;-83
2022/06/26 14:58:10;;;;;;;0.20;0.20;;;;;;;;;;5041228;28;20049;-84
2022/06/26 15:00:38;;;;;;;0.40;0.22;;;;;;;;;;5041045;28;20045;-83
2022/06/26 15:03:05;;;;;;;1.42;0.20;;;;;;;;;;5058940;28;20084;-83
2022/06/26 15:05:32;;;;;;;0.38;0.30;;;;;;;;;;5041455;28;20069;-83
2022/06/26 15:07:59;;;;;;;0.77;0.32;;;;;;;;;;5044890;28;20136;-83
2022/06/26 15:10:26;;;;;;;1.02;0.43;;;;;;;;;;5042507;28;20049;-83